Chennai, India

10:07 AM IST on November 27, 2014 (GMT +0530)
Chennai International | Change Station
CLOSE
Current Station
Airport
Location: Chennai,
Elevation: 52 ft
Nearby Weather Stations

Elev 52 ft 12.99 °N, 80.18 °E | Updated 27 minutes ago

Haze
Haze
81 °F
Feels Like 84 °F
N
7
Wind Variable Wind from NNE

Today
High -- | Low -- °F
--% Chance of Precip.
Yesterday
High -- | Low -- °F
Precip. -- in
6:13 AM 5:40 PM
Waxing Crescent, 25% visible
Pressure 29.89 in
Visibility 2.5 miles
Clouds Scattered Clouds 1800 ft
Mostly Cloudy 10000 ft
Heat Index 84 °F
Dew Point 70 °F
Humidity 70%
Rainfall 0.00 in
Snow Depth Not available.
UV 4 out of 12
Pollen Not available.
Air Quality Not available.
Flu Activity Not available.
METAR VOMM 270410Z 02006KT 4000 HZ SCT018 BKN100 27/21 Q1012 NOSIG

More Conditions Fewer Conditions

Pressure 29.89 in
Visibility 2.5 miles
Clouds Scattered Clouds 1800 ft
Mostly Cloudy 10000 ft
Heat Index 84 °F
Dew Point 70 °F
Humidity 70%
Rainfall 0.00 in
Snow Depth Not available.
UV 4 out of 12
Pollen Not available.
Air Quality Not available.
Flu Activity Not available.
METAR VOMM 270410Z 02006KT 4000 HZ SCT018 BKN100 27/21 Q1012 NOSIG

More Conditions Fewer Conditions

10-Day Weather Forecast

Almanac

Astronomy

Nov. 27, 2014 Rise Set
Actual Time
Civil Twilight
Nautical Twilight
Astronomical Twilight
Moon
Length of Visible Light
Length of Day
Tomorrow will be .
, % of the Moon is Illuminated

Today's Extremes

Country Highs Country Lows

Community

WunderPhotos

Upload Photos

1,773,959 photos uploaded!

WunderBlogs® & News

Nearby

Air Quality

  Air Quality AQ Index Pollutant
Not available.

Snow Depth

Station Depth Elevation

Earthquake Activity

City Distance Mag. Time & Date
Minimum magnitude displayed is 2.5.

Coastal Water Temperatures

Place Temperature

Nearby Weather Stations